CheckWX is a tool to help pilots better visualize weather data.  It is not intended as a substitute for an official pre-flight weather briefing.

13:32:43 UTC

LGTL TAF
Kasteli Airport
Crete Island, Greece
TAF LGTL 241100Z 2412/2421 01012KT 9999 FEW030

May-24@
12:00 UTC

May-24 @ 12:00 UTC

May-24@
21:00 UTC

May-24 @ 21:00 UTC

TAF LGTL 241100Z 2412/2421 01012KT 9999 FEW030
Wind
  • 010° at 12 KTS
Cloud Levels
  • Few at 3,000' AGL